»·PEaware :: N291VH KAVX-KLAS

N291VH :: KAVX-KLAS

FLIGHT INFORMATION

Flight Status: Arrived
Operator: Privately registered:
United States
More flights under this callsign
Pilot: Peter B. (26628)
Aircraft: SOCATA TBM-900
(TBM9)
More flights by this aircraft type
Origin: KAVX Catalina
United States
Destination: KLAS McCarran Intl
United States
More flights between these airports :: More routes between these airports
Route: +SLI POM DAG CRESO4
File this flight plan on PilotEdge
Remarks:
Altitude:
(Current/Filed)
25,000ft
Speed:
(Current/Filed)
200kts
Departed: 24-Jan-20 05:54 PM
Arrived: 24-Jan-20 06:55 PM
Distance/Time
Traveled:
227nm/1:01
Distance/Time
To Go:
Arrived

Flight Plot

Page will automatically refresh every two minutes.

Flight plan parsing failed; only flown route is shown


Map Options




Map Legend


Flown Route
Filed Route
Departure Airport
Arrival Airport
Navaid (VOR, NDB)
Fix

Horizontal Profiles

Position Reports

Time Latitude Longitude Heading Altitude Ground
Speed
24-Jan-20 17:30 33.403958 -118.415165 146 1569ft 0kts
24-Jan-20 17:31 33.403958 -118.415165 146 1569ft 0kts
24-Jan-20 17:32 33.403958 -118.415165 146 1569ft 0kts
24-Jan-20 17:33 33.403958 -118.415165 146 1569ft 0kts
24-Jan-20 17:34 33.403958 -118.415165 146 1569ft 0kts
24-Jan-20 17:35 33.403958 -118.415165 146 1569ft 0kts
24-Jan-20 17:36 33.403958 -118.415165 146 1569ft 0kts
24-Jan-20 17:37 33.403958 -118.415165 146 1569ft 0kts
24-Jan-20 17:38 33.403958 -118.415165 146 1569ft 0kts
24-Jan-20 17:39 33.403958 -118.415165 146 1569ft 0kts
24-Jan-20 17:40 33.403958 -118.415165 146 1569ft 0kts
24-Jan-20 17:41 33.403958 -118.415165 146 1569ft 0kts
24-Jan-20 17:42 33.403958 -118.415165 146 1569ft 0kts
24-Jan-20 17:43 33.403958 -118.415165 146 1569ft 0kts
24-Jan-20 17:44 33.403957 -118.415165 146 1569ft 0kts
24-Jan-20 17:45 33.403957 -118.415165 146 1569ft 0kts
24-Jan-20 17:46 33.403957 -118.415165 146 1569ft 0kts
24-Jan-20 17:47 33.403957 -118.415165 146 1569ft 0kts
24-Jan-20 17:48 33.403740 -118.415290 230 1569ft 11kts
24-Jan-20 17:49 33.404308 -118.416285 56 1569ft 8kts
24-Jan-20 17:50 33.406064 -118.413278 55 1569ft 12kts
24-Jan-20 17:51 33.407050 -118.411615 55 1569ft 0kts
24-Jan-20 17:52 33.407241 -118.411384 17 1569ft 4kts
24-Jan-20 17:53 33.402012 -118.420660 234 1635ft 115kts
24-Jan-20 17:54 33.377244 -118.438804 148 3376ft 122kts
24-Jan-20 17:55 33.388778 -118.412329 6 4200ft 137kts
24-Jan-20 17:56 33.427115 -118.394169 33 4606ft 164kts
24-Jan-20 17:57 33.461165 -118.362392 34 6786ft 150kts
24-Jan-20 17:58 33.501357 -118.324229 35 7017ft 213kts
24-Jan-20 17:59 33.546712 -118.280968 34 8553ft 179kts
24-Jan-20 18:00 33.585314 -118.244199 34 10079ft 179kts
24-Jan-20 18:01 33.624694 -118.206611 33 11156ft 182kts
24-Jan-20 18:02 33.665175 -118.167935 33 12247ft 192kts
24-Jan-20 18:03 33.707023 -118.127892 32 14006ft 203kts
24-Jan-20 18:04 33.756228 -118.080744 33 14472ft 239kts
24-Jan-20 18:05 33.802911 -118.040898 24 17026ft 194kts
24-Jan-20 18:06 33.850973 -118.006996 24 18560ft 205kts
24-Jan-20 18:07 33.900573 -117.971915 23 20488ft 210kts
24-Jan-20 18:08 33.951143 -117.936126 23 22389ft 217kts
24-Jan-20 18:09 34.003465 -117.899032 23 24313ft 221kts
24-Jan-20 18:10 34.050339 -117.845976 54 25032ft 276kts
24-Jan-20 18:11 34.091901 -117.768840 41 25065ft 290kts
24-Jan-20 18:12 34.137580 -117.707450 42 25071ft 298kts
24-Jan-20 18:13 34.193230 -117.632401 42 25085ft 309kts
24-Jan-20 18:15 34.260998 -117.540791 42 25094ft 315kts
24-Jan-20 18:15 34.310120 -117.474200 42 25095ft 319kts
24-Jan-20 18:16 34.369156 -117.394021 42 25095ft 321kts
24-Jan-20 18:17 34.426929 -117.315419 42 25090ft 321kts
24-Jan-20 18:18 34.486194 -117.234588 42 25090ft 321kts
24-Jan-20 18:19 34.542625 -117.157419 42 25079ft 291kts
24-Jan-20 18:20 34.594377 -117.086557 41 25089ft 273kts
24-Jan-20 18:21 34.643961 -117.018517 41 25102ft 268kts
24-Jan-20 18:22 34.692908 -116.951223 41 25114ft 267kts
24-Jan-20 18:23 34.740595 -116.885526 41 25120ft 267kts
24-Jan-20 18:24 34.789663 -116.817786 41 25105ft 269kts
24-Jan-20 18:25 34.839770 -116.748519 41 25099ft 282kts
24-Jan-20 18:26 34.893742 -116.673690 41 25078ft 303kts
24-Jan-20 18:27 34.949478 -116.596204 41 25070ft 302kts
24-Jan-20 18:28 34.994211 -116.506894 54 25075ft 315kts
24-Jan-20 18:29 35.035996 -116.412690 54 25069ft 309kts
24-Jan-20 18:30 35.077094 -116.320001 55 24522ft 327kts
24-Jan-20 18:31 35.119048 -116.224957 55 23119ft 321kts
24-Jan-20 18:32 35.160772 -116.130216 55 21726ft 314kts
24-Jan-20 18:33 35.202360 -116.035581 56 20337ft 321kts
24-Jan-20 18:34 35.245428 -115.937141 57 18885ft 317kts
24-Jan-20 18:35 35.282593 -115.851989 56 17587ft 259kts
24-Jan-20 18:36 35.316760 -115.778667 41 16493ft 235kts
24-Jan-20 18:37 35.365553 -115.714057 42 15405ft 286kts
24-Jan-20 18:38 35.421705 -115.639076 43 14062ft 307kts
24-Jan-20 18:39 35.474036 -115.569019 43 12789ft 256kts
24-Jan-20 18:40 35.520913 -115.506210 42 12083ft 236kts
24-Jan-20 18:41 35.566853 -115.444607 43 12096ft 250kts
24-Jan-20 18:42 35.614483 -115.380568 43 11935ft 255kts
24-Jan-20 18:43 35.662553 -115.315849 45 10767ft 258kts
24-Jan-20 18:44 35.709869 -115.251976 45 10084ft 237kts
24-Jan-20 18:45 35.752756 -115.194011 45 10088ft 222kts
24-Jan-20 18:46 35.801276 -115.152817 11 9995ft 220kts
24-Jan-20 18:47 35.865337 -115.134983 11 8834ft 246kts
24-Jan-20 18:48 35.932450 -115.117082 11 7644ft 247kts
24-Jan-20 18:49 35.989320 -115.101797 11 7116ft 142kts
24-Jan-20 18:50 36.020562 -115.080412 45 5721ft 129kts
24-Jan-20 18:51 36.050988 -115.058888 1 4064ft 134kts
24-Jan-20 18:52 36.073483 -115.074116 281 3247ft 95kts
24-Jan-20 18:53 36.076321 -115.105841 272 2093ft 93kts
24-Jan-20 18:54 36.076390 -115.132922 270 2056ft 39kts
24-Jan-20 18:55 36.076883 -115.137481 307 2068ft 8kts
24-Jan-20 18:56 36.076899 -115.137505 312 2068ft 0kts
24-Jan-20 18:57 36.077171 -115.138163 337 2070ft 0kts
24-Jan-20 18:58 36.077171 -115.138163 337 2070ft 0kts
24-Jan-20 18:59 36.077171 -115.138163 337 2070ft 0kts
24-Jan-20 19:00 36.077171 -115.138163 337 2070ft 0kts
24-Jan-20 19:01 36.077555 -115.142695 272 2083ft 30kts
24-Jan-20 19:02 36.078044 -115.151429 268 2112ft 26kts
24-Jan-20 19:03 36.078026 -115.158066 269 2138ft 20kts
24-Jan-20 19:04 36.078023 -115.163809 269 2157ft 0kts
24-Jan-20 19:05 36.078013 -115.166254 270 2164ft 0kts
24-Jan-20 19:06 36.078013 -115.166254 270 2164ft 0kts
24-Jan-20 19:07 36.078013 -115.169295 270 2173ft 17kts
24-Jan-20 19:08 36.082115 -115.168896 23 2162ft 21kts

Navigation Log

Ident Type
Flight plan parsing failed, navigation log unavailable